Mc Connell Air Force Base
KIAB : now visible

Airfield :











YOU CAN JOIN US ON...

 
LOGIN :

Register | Disclaimer

   EN    FR    IT 

 









Legend :    VFR   Marginal VFR   IFR   Intensive IFR   Very Intensive IFR
Visi :
Ceiling :
>= 8 km
>= 3000ft
5 to 8 km
1000 to 3000 ft
1500m to 5 km
500 to 1000 ft
800 to 1500m
200 to 500 ft
< 800m
< 200 ft
Symbols :   Thunderstorms  Fog  Heavy snow  Heavy precipitations  Wind > 20 kt







- Airport Elevation : 1371 ft
- IATA code : IAB


KIAB - Mc Connell Air Force Base

CURRENT METAR :
  • 212156Z AUTO 14019G26KT 10SM FEW048 SCT055 SCT120 29/21 A2989 RMK AO2 PK WND 15028/16 SLP111 T02910208 $

EXPIRED METARs :
  • 212056Z AUTO 15020G25KT 10SM BKN034 OVC044 30/20 A2989 RMK AO2 PK WND 14028/02 SLP110 T02970202 57020 $
  • 211956Z AUTO 15021G27KT 10SM SCT034 30/20 A2990 RMK AO2 PK WND 15029/24 SLP114 T03030199 $

TAF TAF KIAB
Valid from the 21 at 00:00 until the 22 at 06:00 UTC


210000Z 2100/2206 14009KT 9999 BKN011 QNH2991INS
BECMG 2112/2113 18012KT 8000 -SHRA OVC012 QNH2997INS
TEMPO 2112/2119 VRB15G25KT 8000 -TSRA OVC012CB
BECMG 2119/2120 20015G20KT 9999 NSW BKN019 QNH2990INS
BECMG 2121/2122 20020G20KT 9999 SCT040 QNH2987INS
BECMG 2123/2124 18012KT 9999 FEW035 QNH2988INS TX29/2122Z TN22/2113Z LAST NO AMDS AFT 2100 NEXT 2310
No reported NOTAMs for that airfield.



MET'MAP, your aeronautical weather chart ! - Copyright ORBIFLY December 2007 - Disclaimer

ORBIFLY MET'MAP TEAM :

Programming & Development : Alexandra Zaïnal
Concept & Development : Baudouin d'Aumeries
Co-Development & Prog : Marc-Olivier Méhu
Technical & hardware support : Manuel Goepfert

Contact : metmap@orbifly.com




SOURCES & CREDITS :

   NOAA       Earth
Advisory